Corcovado, Argentina
Current Conditions -  °F | °C
As of 2:00 AM on Thursday 23 Oct 2014 (Local Time) from SCAP Reporting Station
Clear Clear  
Wind Chill: 41°   Ceiling: Unl
Heat Index: 41°   Visibility: NA
Dew Point: 39°   Wind: 1mph
Humidity: 93%   Direction: NA
Pressure: 30.36"   Gusts: NA
Location:  43.46°S, 71.09°W
Report Text: SCAP 230500Z AUTO VRB01KT //// // NSC 05/04 Q1028
Loading
Personal Weather Stations






























Interactive Weather Map
Tropical Storm Tracking
New forecast layout! Learn more

10-Day Weather Forecast

Advertisements
Track Severe Weather on mobile